Newcastle, Maine
Current Conditions -  °F | °C
As of 10:13 AM on Thursday 23 Oct 2014 (Local Time) from KIWI Reporting Station
Light Rain Light Rain  
Wind Chill: 51°   Ceiling: 1000
Heat Index: 51°   Visibility: 2.5mi
Dew Point: 49°   Wind: 8mph
Humidity: 92%   Direction: 40°NE
Pressure: 29.81"   Gusts: 16mph
Location:  44.04°N, 69.54°W
Report Text: KIWI 231413Z AUTO 04007G14KT 360V090 2 1/2SM -RA BR BKN010 OVC016 11/09 A2981 RMK AO2 P0001 T01060094
Loading
Personal Weather Stations






























Interactive Weather Map
Tropical Storm Tracking
New forecast layout! Learn more

10-Day Weather Forecast

Advertisements
Track Severe Weather on mobile